createdAt,value
2018-11-20T00:01:43.454Z,7.37
2018-11-20T00:04:34.796Z,8.57
2018-11-20T00:07:33.664Z,7.67
2018-11-20T00:12:53.754Z,7.10
2018-11-20T00:15:47.458Z,8.27
2018-11-20T00:18:55.307Z,7.63
2018-11-20T00:21:38.857Z,10.03
2018-11-20T00:24:26.717Z,7.13
2018-11-20T00:27:01.475Z,8.07
2018-11-20T00:29:51.792Z,8.47
2018-11-20T00:35:16.625Z,7.90
2018-11-20T00:43:40.030Z,7.27
2018-11-20T00:48:45.488Z,6.70
2018-11-20T00:51:47.345Z,6.30
2018-11-20T00:54:42.058Z,7.40
2018-11-20T00:57:34.944Z,7.10
2018-11-20T01:00:15.520Z,5.07
2018-11-20T01:03:10.045Z,5.67
2018-11-20T01:06:01.363Z,5.13
2018-11-20T01:08:40.861Z,5.23
2018-11-20T01:11:31.885Z,5.83
2018-11-20T01:14:38.824Z,6.10
2018-11-20T01:17:32.088Z,8.47
2018-11-20T01:22:50.763Z,6.33
2018-11-20T01:25:48.806Z,5.77
2018-11-20T01:28:34.536Z,6.63
2018-11-20T01:31:24.449Z,6.47
2018-11-20T01:34:17.687Z,6.33
2018-11-20T01:37:10.901Z,7.53
2018-11-20T01:40:01.713Z,8.13
2018-11-20T01:42:51.749Z,8.57
2018-11-20T01:45:43.415Z,8.20
2018-11-20T01:48:16.253Z,7.60
2018-11-20T01:51:07.917Z,9.17
2018-11-20T01:54:04.303Z,8.00
2018-11-20T01:56:46.777Z,6.43
2018-11-20T01:59:48.957Z,6.30
2018-11-20T02:02:42.357Z,6.63
2018-11-20T02:08:01.847Z,8.77
2018-11-20T02:11:10.742Z,7.27
2018-11-20T02:13:40.959Z,7.73
2018-11-20T02:16:36.323Z,6.27
2018-11-20T02:19:46.991Z,4.87
2018-11-20T02:22:30.015Z,6.07
2018-11-20T02:25:26.064Z,8.70
2018-11-20T02:28:13.708Z,7.83
2018-11-20T02:31:24.179Z,6.87
2018-11-20T02:34:13.438Z,9.40
2018-11-20T02:37:17.950Z,7.07
2018-11-20T02:40:07.965Z,7.20
2018-11-20T02:42:59.250Z,7.10
2018-11-20T02:48:37.629Z,5.57
2018-11-20T02:51:39.285Z,7.40
2018-11-20T02:54:48.929Z,6.43
2018-11-20T02:57:57.743Z,8.73
2018-11-20T03:00:52.883Z,7.73
2018-11-20T03:03:40.145Z,6.07
2018-11-20T03:06:41.184Z,10.13
2018-11-20T03:09:14.226Z,6.87
2018-11-20T03:12:06.506Z,8.17
2018-11-20T03:17:37.360Z,6.10
2018-11-20T03:20:33.292Z,6.47
2018-11-20T03:23:03.721Z,5.63
2018-11-20T03:26:08.258Z,7.47
2018-11-20T03:28:38.842Z,6.87
2018-11-20T03:31:28.082Z,6.63
2018-11-20T03:34:23.676Z,6.80
2018-11-20T03:37:12.172Z,6.00
2018-11-20T03:40:25.540Z,6.00
2018-11-20T03:43:15.254Z,5.23
2018-11-20T03:45:55.520Z,5.97
2018-11-20T03:48:54.432Z,6.23
2018-11-20T03:51:50.118Z,5.53
2018-11-20T03:54:38.626Z,7.17
2018-11-20T03:57:47.352Z,4.93
2018-11-20T04:00:43.644Z,6.20
2018-11-20T04:03:35.337Z,4.50
2018-11-20T04:06:43.729Z,6.33
2018-11-20T04:09:50.304Z,6.80
2018-11-20T04:12:43.705Z,9.57
2018-11-20T04:15:39.184Z,6.67
2018-11-20T04:18:22.897Z,7.30
2018-11-20T04:21:23.906Z,6.50
2018-11-20T04:24:19.582Z,5.53
2018-11-20T04:27:10.018Z,5.77
2018-11-20T04:29:42.886Z,9.87
2018-11-20T04:32:35.109Z,6.37
2018-11-20T04:35:30.521Z,5.10
2018-11-20T04:38:37.225Z,7.27
2018-11-20T04:44:05.961Z,6.20
2018-11-20T04:46:56.771Z,5.37
2018-11-20T04:49:27.020Z,4.80
2018-11-20T04:52:29.955Z,6.00
2018-11-20T04:54:59.843Z,7.30
2018-11-20T04:57:51.503Z,5.03
2018-11-20T05:00:42.502Z,6.93
2018-11-20T05:03:47.604Z,6.23
2018-11-20T05:06:39.630Z,5.97
2018-11-20T05:09:42.177Z,6.93
2018-11-20T05:12:44.222Z,7.97
2018-11-20T05:15:35.010Z,5.37
2018-11-20T05:18:25.215Z,5.67
2018-11-20T05:24:17.533Z,7.03
2018-11-20T05:27:19.528Z,5.30
2018-11-20T05:30:17.573Z,6.60
2018-11-20T05:33:06.156Z,5.63
2018-11-20T05:35:46.791Z,8.57
2018-11-20T05:38:32.358Z,6.50
2018-11-20T05:41:20.638Z,6.07
2018-11-20T05:46:34.745Z,7.00
2018-11-20T05:49:36.358Z,6.50
2018-11-20T05:52:28.560Z,5.93
2018-11-20T05:55:21.904Z,6.53
2018-11-20T05:58:08.156Z,6.17
2018-11-20T06:00:56.491Z,6.37
2018-11-20T06:04:01.333Z,6.30
2018-11-20T06:09:22.879Z,8.07
2018-11-20T06:12:21.718Z,8.13
2018-11-20T06:15:14.490Z,6.43
2018-11-20T06:18:06.255Z,5.90
2018-11-20T06:21:12.173Z,7.80
2018-11-20T06:24:05.827Z,6.60
2018-11-20T06:26:58.796Z,6.10
2018-11-20T06:29:32.047Z,8.03
2018-11-20T06:32:18.290Z,6.70
2018-11-20T06:35:08.929Z,7.93
2018-11-20T06:38:10.519Z,6.67
2018-11-20T06:41:09.849Z,12.03
2018-11-20T06:44:11.604Z,9.33
2018-11-20T06:46:45.013Z,10.50
2018-11-20T06:49:35.283Z,7.80
2018-11-20T06:52:25.044Z,9.90
2018-11-20T06:55:23.800Z,9.63
2018-11-20T06:58:27.434Z,8.33
2018-11-20T07:01:20.353Z,8.70
2018-11-20T07:04:09.576Z,9.67
2018-11-20T07:07:17.603Z,7.93
2018-11-20T07:10:16.399Z,8.13
2018-11-20T07:13:02.731Z,8.73
2018-11-20T07:15:50.783Z,7.70
2018-11-20T07:18:49.280Z,10.70
2018-11-20T07:21:37.759Z,14.40
2018-11-20T07:24:33.637Z,6.93
2018-11-20T07:27:23.068Z,10.17
2018-11-20T07:30:05.084Z,9.13
2018-11-20T07:32:55.382Z,13.80
2018-11-20T07:35:48.301Z,13.47
2018-11-20T07:38:47.545Z,11.40
2018-11-20T07:41:52.169Z,9.87
2018-11-20T07:44:32.969Z,11.23
2018-11-20T07:47:21.521Z,11.27
2018-11-20T07:50:10.659Z,9.87
2018-11-20T07:53:03.045Z,8.83
2018-11-20T07:55:47.183Z,7.37
2018-11-20T07:58:39.730Z,7.30
2018-11-20T08:01:23.365Z,10.57
2018-11-20T08:04:16.677Z,13.90
2018-11-20T08:09:54.706Z,13.17
2018-11-20T08:12:47.596Z,28.20
2018-11-20T08:15:17.567Z,51.87
2018-11-20T08:18:10.368Z,58.37
2018-11-20T08:20:40.628Z,24.60
2018-11-20T08:23:36.612Z,37.30
2018-11-20T08:26:27.478Z,12.20
2018-11-20T08:29:20.752Z,16.87
2018-11-20T08:32:19.344Z,13.00
2018-11-20T08:35:11.629Z,12.57
2018-11-20T08:38:09.600Z,10.17
2018-11-20T08:40:57.563Z,8.30
2018-11-20T08:43:49.874Z,12.20
2018-11-20T08:46:39.080Z,9.93
2018-11-20T08:49:46.921Z,10.67
2018-11-20T08:52:34.949Z,6.87
2018-11-20T08:55:27.336Z,11.90
2018-11-20T08:58:15.597Z,7.23
2018-11-20T09:01:09.234Z,7.10
2018-11-20T09:03:56.963Z,5.80
2018-11-20T09:06:47.639Z,12.37
2018-11-20T09:09:35.800Z,7.37
2018-11-20T09:12:23.795Z,9.97
2018-11-20T09:15:18.422Z,10.97
2018-11-20T09:18:09.436Z,16.17
2018-11-20T09:21:01.814Z,19.67
2018-11-20T09:23:29.216Z,14.27
2018-11-20T09:26:21.520Z,11.40
2018-11-20T09:29:10.315Z,10.20
2018-11-20T09:31:58.845Z,12.30
2018-11-20T09:34:48.340Z,11.50
2018-11-20T09:37:46.866Z,8.60
2018-11-20T09:41:10.921Z,10.57
2018-11-20T09:46:36.989Z,11.57
2018-11-20T09:49:26.037Z,12.40
2018-11-20T09:52:21.504Z,7.23
2018-11-20T09:57:56.344Z,10.50
2018-11-20T10:00:49.221Z,10.00
2018-11-20T10:03:19.652Z,11.03
2018-11-20T10:06:30.805Z,12.97
2018-11-20T10:08:59.711Z,7.87
2018-11-20T10:12:02.165Z,8.07
2018-11-20T10:14:32.305Z,9.73
2018-11-20T10:17:23.771Z,7.03
2018-11-20T10:19:54.372Z,7.07
2018-11-20T10:22:45.508Z,7.77
2018-11-20T10:28:54.795Z,10.73
2018-11-20T10:31:46.752Z,9.93
2018-11-20T10:34:19.027Z,9.17
2018-11-20T10:37:11.073Z,8.30
2018-11-20T10:40:10.601Z,10.70
2018-11-20T10:42:38.957Z,7.97
2018-11-20T10:45:30.059Z,11.03
2018-11-20T10:48:36.213Z,11.43
2018-11-20T10:51:18.217Z,8.83
2018-11-20T10:54:10.972Z,9.27
2018-11-20T10:57:13.240Z,7.60
2018-11-20T11:00:23.749Z,8.53
2018-11-20T11:05:40.907Z,29.67
2018-11-20T11:08:32.372Z,8.70
2018-11-20T11:11:28.244Z,9.33
2018-11-20T11:14:21.120Z,9.93
2018-11-20T11:17:12.285Z,7.60
2018-11-20T11:20:01.222Z,7.87
2018-11-20T11:22:47.832Z,8.23
2018-11-20T11:28:08.930Z,10.90
2018-11-20T11:31:04.776Z,9.13
2018-11-20T11:34:08.484Z,8.93
2018-11-20T11:37:00.481Z,8.70
2018-11-20T11:39:53.336Z,8.80
2018-11-20T11:42:41.515Z,9.03
2018-11-20T11:45:25.808Z,10.07
2018-11-20T11:50:29.632Z,8.23
2018-11-20T11:53:23.017Z,8.43
2018-11-20T11:58:56.461Z,10.73
2018-11-20T12:04:51.795Z,14.33
2018-11-20T12:07:47.012Z,10.20
2018-11-20T12:10:37.753Z,9.20
2018-11-20T12:16:17.298Z,6.20
2018-11-20T12:19:11.791Z,9.00
2018-11-20T12:24:48.877Z,7.03
2018-11-20T12:27:54.297Z,8.80
2018-11-20T12:30:45.410Z,7.10
2018-11-20T12:36:03.250Z,6.50
2018-11-20T12:38:53.870Z,7.30
2018-11-20T12:41:52.147Z,9.73
2018-11-20T12:47:32.188Z,10.97
2018-11-20T12:52:55.217Z,9.60
2018-11-20T12:58:13.945Z,10.07
2018-11-20T13:01:16.454Z,11.30
2018-11-20T13:03:47.022Z,9.90
2018-11-20T13:06:41.426Z,13.80
2018-11-20T13:09:43.189Z,14.60
2018-11-20T13:12:30.030Z,10.83
2018-11-20T13:15:25.603Z,12.97
2018-11-20T13:20:54.364Z,13.50
2018-11-20T13:23:49.499Z,11.77
2018-11-20T13:26:18.237Z,8.30
2018-11-20T13:29:11.059Z,13.43
2018-11-20T13:31:59.918Z,10.87
2018-11-20T13:34:42.693Z,11.13
2018-11-20T13:37:35.603Z,13.27
2018-11-20T13:40:08.211Z,9.20
2018-11-20T13:46:10.575Z,12.87
2018-11-20T13:49:06.348Z,11.20
2018-11-20T13:54:31.963Z,13.50
2018-11-20T13:57:29.766Z,16.57
2018-11-20T14:00:21.020Z,11.57
2018-11-20T14:03:13.188Z,10.10
2018-11-20T14:06:02.272Z,10.90
2018-11-20T14:11:47.955Z,12.53
2018-11-20T14:14:28.631Z,10.47
2018-11-20T14:17:21.967Z,11.47
2018-11-20T14:20:00.007Z,12.43
2018-11-20T14:22:45.236Z,17.17
2018-11-20T14:25:44.762Z,13.27
2018-11-20T14:28:39.965Z,28.47
2018-11-20T14:31:35.170Z,18.63
2018-11-20T14:34:34.466Z,18.43
2018-11-20T14:37:07.206Z,13.00
2018-11-20T14:40:07.296Z,14.83
2018-11-20T14:43:14.309Z,14.13
2018-11-20T14:46:06.479Z,16.53
2018-11-20T14:48:56.675Z,13.93
2018-11-20T14:51:58.131Z,12.00
2018-11-20T14:57:25.881Z,16.57
2018-11-20T15:00:17.266Z,12.57
2018-11-20T15:05:06.772Z,13.33
2018-11-20T15:08:13.647Z,17.20
2018-11-20T15:10:59.652Z,13.73
2018-11-20T15:13:48.394Z,15.70
2018-11-20T15:20:05.122Z,16.33
2018-11-20T15:22:52.614Z,14.90
2018-11-20T15:25:53.011Z,17.23
2018-11-20T15:28:45.023Z,13.87
2018-11-20T15:31:36.792Z,14.57
2018-11-20T15:34:35.694Z,15.80
2018-11-20T15:37:41.649Z,17.10
2018-11-20T15:40:37.473Z,13.50
2018-11-20T15:43:27.039Z,20.90
2018-11-20T15:46:24.990Z,24.70
2018-11-20T15:49:35.200Z,14.37
2018-11-20T15:52:23.523Z,20.50
2018-11-20T15:55:17.072Z,26.57
2018-11-20T15:57:56.718Z,31.57
2018-11-20T16:00:51.735Z,23.13
2018-11-20T16:03:40.667Z,14.57
2018-11-20T16:06:40.396Z,14.23
2018-11-20T16:09:29.921Z,12.40
2018-11-20T16:13:11.793Z,12.17
2018-11-20T16:15:40.491Z,12.87
2018-11-20T16:18:47.236Z,16.80
2018-11-20T16:21:51.346Z,14.90
2018-11-20T16:24:35.286Z,17.97
2018-11-20T16:27:41.498Z,21.97
2018-11-20T16:31:00.228Z,20.47
2018-11-20T16:34:22.605Z,16.27
2018-11-20T16:37:05.381Z,15.67
2018-11-20T16:40:17.165Z,18.73
2018-11-20T16:43:02.292Z,17.90
2018-11-20T16:45:58.271Z,16.87
2018-11-20T16:48:55.925Z,18.83
2018-11-20T16:51:50.542Z,18.57
2018-11-20T16:54:40.063Z,19.47
2018-11-20T16:57:46.885Z,19.43
2018-11-20T17:00:50.601Z,22.67
2018-11-20T17:03:39.664Z,20.90
2018-11-20T17:06:43.662Z,20.00
2018-11-20T17:09:37.838Z,17.13
2018-11-20T17:12:39.254Z,16.47
2018-11-20T17:15:24.420Z,18.50
2018-11-20T17:18:12.071Z,17.87
2018-11-20T17:21:17.755Z,20.87
2018-11-20T17:24:53.221Z,25.63
2018-11-20T17:27:41.638Z,21.23
2018-11-20T17:30:49.250Z,21.40
2018-11-20T17:34:23.408Z,17.73
2018-11-20T17:40:34.517Z,19.40
2018-11-20T17:57:58.581Z,21.57
2018-11-20T18:01:04.919Z,24.67
2018-11-20T18:07:56.043Z,24.57
2018-11-20T18:11:04.365Z,28.83
2018-11-20T18:14:20.030Z,25.13
2018-11-20T18:34:21.972Z,25.07
2018-11-20T18:37:41.730Z,33.80
2018-11-20T18:48:01.144Z,35.03
2018-11-20T18:51:14.611Z,25.83
2018-11-20T18:54:21.832Z,28.10
2018-11-20T18:57:38.485Z,22.10
2018-11-20T19:00:29.480Z,26.03
2018-11-20T19:03:24.647Z,23.67
2018-11-20T19:06:12.963Z,25.07
2018-11-20T19:09:07.322Z,25.70
2018-11-20T19:12:14.766Z,24.00
2018-11-20T19:15:06.889Z,24.40
2018-11-20T19:17:50.666Z,26.30
2018-11-20T19:20:59.425Z,23.57
2018-11-20T19:23:47.353Z,20.97
2018-11-20T19:26:34.390Z,23.10
2018-11-20T19:29:29.215Z,21.97
2018-11-20T19:32:24.897Z,27.20
2018-11-20T19:35:16.808Z,27.40
2018-11-20T19:38:07.537Z,21.53
2018-11-20T19:41:02.960Z,24.60
2018-11-20T19:44:00.893Z,24.17
2018-11-20T19:46:58.545Z,24.67
2018-11-20T19:50:05.052Z,20.43
2018-11-20T19:52:56.954Z,29.27
2018-11-20T19:55:52.133Z,27.07
2018-11-20T19:58:55.992Z,23.90
2018-11-20T20:01:51.931Z,27.23
2018-11-20T20:04:54.253Z,25.17
2018-11-20T20:07:34.212Z,26.17
2018-11-20T20:10:41.782Z,23.83
2018-11-20T20:13:33.726Z,30.67
2018-11-20T20:16:27.094Z,25.30
2018-11-20T20:19:19.008Z,25.47
2018-11-20T20:22:13.510Z,24.30
2018-11-20T20:25:17.049Z,23.87
2018-11-20T20:28:03.465Z,25.13
2018-11-20T20:30:50.558Z,24.03
2018-11-20T20:33:48.666Z,24.97
2018-11-20T20:36:43.806Z,22.33
2018-11-20T20:39:31.167Z,23.40
2018-11-20T20:42:22.830Z,21.00
2018-11-20T20:45:11.380Z,20.93
2018-11-20T20:48:02.103Z,18.37
2018-11-20T20:50:56.701Z,25.27
2018-11-20T20:53:54.524Z,27.80
2018-11-20T20:56:41.597Z,20.13
2018-11-20T20:59:40.278Z,23.67
2018-11-20T21:02:31.844Z,21.50
2018-11-20T21:05:19.215Z,22.43
2018-11-20T21:08:25.780Z,21.13
2018-11-20T21:11:12.912Z,24.33
2018-11-20T21:14:05.252Z,33.33
2018-11-20T21:17:02.313Z,25.60
2018-11-20T21:19:49.567Z,21.60
2018-11-20T21:22:43.886Z,23.70
2018-11-20T21:25:32.802Z,21.83
2018-11-20T21:28:23.828Z,23.77
2018-11-20T21:31:15.616Z,19.07
2018-11-20T21:33:58.367Z,21.97
2018-11-20T21:36:45.017Z,23.03
2018-11-20T21:39:33.801Z,22.80
2018-11-20T21:42:27.147Z,23.87
2018-11-20T21:45:15.805Z,26.67
2018-11-20T21:48:12.542Z,24.83
2018-11-20T21:50:58.940Z,21.13
2018-11-20T21:54:05.725Z,22.60
2018-11-20T21:56:52.774Z,18.37
2018-11-20T21:59:46.121Z,20.27
2018-11-20T22:02:37.366Z,19.53
2018-11-20T22:05:28.450Z,22.37
2018-11-20T22:08:09.389Z,23.10
2018-11-20T22:11:04.662Z,19.37
2018-11-20T22:13:56.701Z,22.10
2018-11-20T22:16:57.609Z,23.27
2018-11-20T22:20:01.457Z,21.17
2018-11-20T22:22:53.309Z,19.97
2018-11-20T22:25:40.832Z,33.10
2018-11-20T22:28:38.500Z,27.70
2018-11-20T22:31:33.542Z,20.27
2018-11-20T22:34:19.234Z,25.27
2018-11-20T22:37:10.325Z,26.23
2018-11-20T22:39:56.079Z,20.10
2018-11-20T22:43:00.045Z,21.23
2018-11-20T22:45:42.893Z,20.30
2018-11-20T22:48:31.388Z,23.50
2018-11-20T22:51:28.519Z,18.50
2018-11-20T22:54:28.693Z,24.57
2018-11-20T22:57:22.987Z,22.17
2018-11-20T23:00:23.696Z,28.47
2018-11-20T23:03:21.670Z,29.40
2018-11-20T23:06:05.101Z,27.13
2018-11-20T23:08:35.470Z,26.40
2018-11-20T23:11:07.674Z,24.27
2018-11-20T23:13:37.350Z,21.70
2018-11-20T23:16:07.763Z,21.97
2018-11-20T23:18:37.893Z,22.10
2018-11-20T23:21:07.494Z,22.50
2018-11-20T23:23:37.622Z,25.13
2018-11-20T23:26:07.524Z,20.67
2018-11-20T23:28:36.427Z,23.40
2018-11-20T23:31:06.790Z,22.50
2018-11-20T23:33:36.652Z,27.07
2018-11-20T23:36:07.226Z,23.67
2018-11-20T23:38:37.254Z,22.50
2018-11-20T23:41:07.467Z,21.60
2018-11-20T23:43:37.550Z,20.77
2018-11-20T23:46:07.206Z,18.97
2018-11-20T23:48:36.926Z,19.40
2018-11-20T23:51:07.235Z,20.23
2018-11-20T23:53:36.595Z,20.00
2018-11-20T23:56:06.349Z,20.03
2018-11-20T23:58:36.067Z,18.77
